Time;durP1;ratioP1;P1;durP2;ratioP2;P2;SDS_P1;SDS_P2;PMS_P1;PMS_P2;Temp;Humidity;BMP_temperature;BMP_pressure;BME280_temperature;BME280_humidity;BME280_pressure;Samples;Min_cycle;Max_cycle;Signal;HPM_P1;HPM_P2
2021/01/31 00:00:39;;;;;;;8.949999;7.349999;;;;;;;2.82;100;93344.58;;;;
2021/01/31 00:01:41;;;;;;;8.949999;7.349999;;;;;;;2.82;100;93344.58;;;;
2021/01/31 00:02:42;;;;;;;8.949999;7.349999;;;;;;;2.82;100;93344.58;;;;
2021/01/31 00:03:42;;;;;;;8.949999;7.349999;;;;;;;2.82;100;93344.58;;;;
2021/01/31 00:04:43;;;;;;;8.949999;7.349999;;;;;;;2.82;100;93344.58;;;;
2021/01/31 00:05:46;;;;;;;10.55;7.85;;;;;;;2.78;100;93356.23;;;;
2021/01/31 00:06:48;;;;;;;10.55;7.85;;;;;;;2.78;100;93356.23;;;;
2021/01/31 00:07:48;;;;;;;10.55;7.85;;;;;;;2.78;100;93356.23;;;;
2021/01/31 00:08:49;;;;;;;10.55;7.85;;;;;;;2.78;100;93356.23;;;;
2021/01/31 00:09:50;;;;;;;10.55;7.85;;;;;;;2.78;100;93356.23;;;;
2021/01/31 00:10:50;;;;;;;10.55;7.85;;;;;;;2.78;100;93356.23;;;;
2021/01/31 00:11:51;;;;;;;10.55;7.85;;;;;;;2.78;100;93356.23;;;;
2021/01/31 00:12:52;;;;;;;10.55;7.85;;;;;;;2.78;100;93356.23;;;;
2021/01/31 00:13:53;;;;;;;10.55;7.85;;;;;;;2.78;100;93356.23;;;;
2021/01/31 00:14:53;;;;;;;10.55;7.85;;;;;;;2.78;100;93356.23;;;;
2021/01/31 00:15:53;;;;;;;10.55;7.85;;;;;;;2.78;100;93356.23;;;;
2021/01/31 00:16:55;;;;;;;10.45;7.849999;;;;;;;2.75;100;93355.39;;;;
2021/01/31 00:17:55;;;;;;;10.45;7.849999;;;;;;;2.75;100;93355.39;;;;
2021/01/31 00:18:56;;;;;;;10.45;7.849999;;;;;;;2.75;100;93355.39;;;;
2021/01/31 00:19:57;;;;;;;10.45;7.849999;;;;;;;2.75;100;93355.39;;;;
2021/01/31 00:20:57;;;;;;;10.45;7.849999;;;;;;;2.75;100;93355.39;;;;
2021/01/31 00:21:58;;;;;;;10.45;7.849999;;;;;;;2.75;100;93355.39;;;;
2021/01/31 00:23:00;;;;;;;10.45;7.849999;;;;;;;2.75;100;93355.39;;;;
2021/01/31 00:24:01;;;;;;;10.45;7.849999;;;;;;;2.75;100;93355.39;;;;
2021/01/31 00:25:02;;;;;;;10.45;7.849999;;;;;;;2.75;100;93355.39;;;;
2021/01/31 00:26:04;;;;;;;10.45;7.849999;;;;;;;2.75;100;93355.39;;;;
2021/01/31 00:27:04;;;;;;;11.05;8.100001;;;;;;;2.72;100;93357.17;;;;
2021/01/31 00:28:05;;;;;;;11.05;8.100001;;;;;;;2.72;100;93357.17;;;;
2021/01/31 00:29:06;;;;;;;11.05;8.100001;;;;;;;2.72;100;93357.17;;;;
2021/01/31 00:30:07;;;;;;;11.05;8.100001;;;;;;;2.72;100;93357.17;;;;
2021/01/31 00:31:12;;;;;;;11.05;8.100001;;;;;;;2.72;100;93357.17;;;;
2021/01/31 00:32:13;;;;;;;11.05;8.100001;;;;;;;2.72;100;93357.17;;;;
2021/01/31 00:33:13;;;;;;;11.05;8.100001;;;;;;;2.72;100;93357.17;;;;
2021/01/31 00:34:16;;;;;;;11.05;8.100001;;;;;;;2.72;100;93357.17;;;;
2021/01/31 00:35:18;;;;;;;11.05;8.100001;;;;;;;2.72;100;93357.17;;;;
2021/01/31 00:36:22;;;;;;;11.05;8.100001;;;;;;;2.72;100;93357.17;;;;
2021/01/31 00:37:22;;;;;;;11.05;8.100001;;;;;;;2.72;100;93357.17;;;;
2021/01/31 00:38:24;;;;;;;9;6.8;;;;;;;2.67;100;93361.06;;;;
2021/01/31 00:39:26;;;;;;;9;6.8;;;;;;;2.67;100;93361.06;;;;
2021/01/31 00:40:26;;;;;;;9;6.8;;;;;;;2.67;100;93361.06;;;;
2021/01/31 00:41:27;;;;;;;9;6.8;;;;;;;2.67;100;93361.06;;;;
2021/01/31 00:42:27;;;;;;;9;6.8;;;;;;;2.67;100;93361.06;;;;
2021/01/31 00:43:27;;;;;;;9;6.8;;;;;;;2.67;100;93361.06;;;;
2021/01/31 00:44:28;;;;;;;9;6.8;;;;;;;2.67;100;93361.06;;;;
2021/01/31 00:45:29;;;;;;;9;6.8;;;;;;;2.67;100;93361.06;;;;
2021/01/31 00:46:29;;;;;;;9;6.8;;;;;;;2.67;100;93361.06;;;;
2021/01/31 00:47:32;;;;;;;9;6.8;;;;;;;2.67;100;93361.06;;;;
2021/01/31 00:48:33;;;;;;;10.4;7.150001;;;;;;;2.62;100;93365.88;;;;
2021/01/31 00:49:33;;;;;;;10.4;7.150001;;;;;;;2.62;100;93365.88;;;;
2021/01/31 00:50:34;;;;;;;10.4;7.150001;;;;;;;2.62;100;93365.88;;;;
2021/01/31 00:51:36;;;;;;;10.4;7.150001;;;;;;;2.62;100;93365.88;;;;
2021/01/31 00:52:37;;;;;;;10.4;7.150001;;;;;;;2.62;100;93365.88;;;;
2021/01/31 00:53:37;;;;;;;10.4;7.150001;;;;;;;2.62;100;93365.88;;;;
2021/01/31 00:54:38;;;;;;;10.4;7.150001;;;;;;;2.62;100;93365.88;;;;
2021/01/31 00:55:39;;;;;;;10.4;7.150001;;;;;;;2.62;100;93365.88;;;;
2021/01/31 00:56:39;;;;;;;10.4;7.150001;;;;;;;2.62;100;93365.88;;;;
2021/01/31 00:57:40;;;;;;;10.4;7.150001;;;;;;;2.62;100;93365.88;;;;
2021/01/31 00:58:40;;;;;;;10.4;7.150001;;;;;;;2.62;100;93365.88;;;;
2021/01/31 00:59:43;;;;;;;11.5;7.55;;;;;;;2.58;100;93366.06;;;;
2021/01/31 01:00:44;;;;;;;11.5;7.55;;;;;;;2.58;100;93366.06;;;;
2021/01/31 01:01:44;;;;;;;11.5;7.55;;;;;;;2.58;100;93366.06;;;;
2021/01/31 01:02:45;;;;;;;11.5;7.55;;;;;;;2.58;100;93366.06;;;;
2021/01/31 01:03:46;;;;;;;11.5;7.55;;;;;;;2.58;100;93366.06;;;;
2021/01/31 01:04:47;;;;;;;11.5;7.55;;;;;;;2.58;100;93366.06;;;;
2021/01/31 01:05:49;;;;;;;11.5;7.55;;;;;;;2.58;100;93366.06;;;;
2021/01/31 01:06:49;;;;;;;11.5;7.55;;;;;;;2.58;100;93366.06;;;;
2021/01/31 01:07:49;;;;;;;11.5;7.55;;;;;;;2.58;100;93366.06;;;;
2021/01/31 01:08:50;;;;;;;11.5;7.55;;;;;;;2.58;100;93366.06;;;;
2021/01/31 01:09:50;;;;;;;9.75;6.849999;;;;;;;2.6;100;93366.63;;;;
2021/01/31 01:10:51;;;;;;;9.75;6.849999;;;;;;;2.6;100;93366.63;;;;
2021/01/31 01:11:51;;;;;;;9.75;6.849999;;;;;;;2.6;100;93366.63;;;;
2021/01/31 01:12:52;;;;;;;9.75;6.849999;;;;;;;2.6;100;93366.63;;;;
2021/01/31 01:13:53;;;;;;;9.75;6.849999;;;;;;;2.6;100;93366.63;;;;
2021/01/31 01:14:53;;;;;;;9.75;6.849999;;;;;;;2.6;100;93366.63;;;;
2021/01/31 01:15:54;;;;;;;9.75;6.849999;;;;;;;2.6;100;93366.63;;;;
2021/01/31 01:16:54;;;;;;;9.75;6.849999;;;;;;;2.6;100;93366.63;;;;
2021/01/31 01:17:55;;;;;;;9.75;6.849999;;;;;;;2.6;100;93366.63;;;;
2021/01/31 01:18:56;;;;;;;9.75;6.849999;;;;;;;2.6;100;93366.63;;;;
2021/01/31 01:19:57;;;;;;;9.75;6.849999;;;;;;;2.6;100;93366.63;;;;
2021/01/31 01:20:57;;;;;;;9.55;6.2;;;;;;;2.51;100;93376.44;;;;
2021/01/31 01:21:58;;;;;;;9.55;6.2;;;;;;;2.51;100;93376.44;;;;
2021/01/31 01:22:58;;;;;;;9.55;6.2;;;;;;;2.51;100;93376.44;;;;
2021/01/31 01:23:59;;;;;;;9.55;6.2;;;;;;;2.51;100;93376.44;;;;
2021/01/31 01:25:02;;;;;;;9.55;6.2;;;;;;;2.51;100;93376.44;;;;
2021/01/31 01:26:03;;;;;;;9.55;6.2;;;;;;;2.51;100;93376.44;;;;
2021/01/31 01:27:04;;;;;;;9.55;6.2;;;;;;;2.51;100;93376.44;;;;
2021/01/31 01:28:05;;;;;;;9.55;6.2;;;;;;;2.51;100;93376.44;;;;
2021/01/31 01:29:05;;;;;;;9.55;6.2;;;;;;;2.51;100;93376.44;;;;
2021/01/31 01:30:06;;;;;;;9.55;6.2;;;;;;;2.51;100;93376.44;;;;
2021/01/31 01:31:10;;;;;;;6.299999;4.65;;;;;;;2.41;100;93376.61;;;;
2021/01/31 01:32:10;;;;;;;6.299999;4.65;;;;;;;2.41;100;93376.61;;;;
2021/01/31 01:33:11;;;;;;;6.299999;4.65;;;;;;;2.41;100;93376.61;;;;
2021/01/31 01:34:11;;;;;;;6.299999;4.65;;;;;;;2.41;100;93376.61;;;;
2021/01/31 01:35:12;;;;;;;6.299999;4.65;;;;;;;2.41;100;93376.61;;;;
2021/01/31 01:36:12;;;;;;;6.299999;4.65;;;;;;;2.41;100;93376.61;;;;
2021/01/31 01:37:13;;;;;;;6.299999;4.65;;;;;;;2.41;100;93376.61;;;;
2021/01/31 01:38:15;;;;;;;6.299999;4.65;;;;;;;2.41;100;93376.61;;;;
2021/01/31 01:39:15;;;;;;;6.299999;4.65;;;;;;;2.41;100;93376.61;;;;
2021/01/31 01:40:16;;;;;;;6.299999;4.65;;;;;;;2.41;100;93376.61;;;;
2021/01/31 01:41:21;;;;;;;6.299999;4.65;;;;;;;2.41;100;93376.61;;;;
2021/01/31 01:42:21;;;;;;;5.199999;4;;;;;;;2.28;100;93374.2;;;;
2021/01/31 01:43:22;;;;;;;5.199999;4;;;;;;;2.28;100;93374.2;;;;
2021/01/31 01:44:22;;;;;;;5.199999;4;;;;;;;2.28;100;93374.2;;;;
2021/01/31 01:45:23;;;;;;;5.199999;4;;;;;;;2.28;100;93374.2;;;;
2021/01/31 01:46:24;;;;;;;5.199999;4;;;;;;;2.28;100;93374.2;;;;
2021/01/31 01:47:32;;;;;;;5.199999;4;;;;;;;2.28;100;93374.2;;;;
2021/01/31 01:48:34;;;;;;;5.199999;4;;;;;;;2.28;100;93374.2;;;;
2021/01/31 01:49:37;;;;;;;5.199999;4;;;;;;;2.28;100;93374.2;;;;
2021/01/31 01:50:41;;;;;;;5.199999;4;;;;;;;2.28;100;93374.2;;;;
2021/01/31 01:51:46;;;;;;;5.199999;4;;;;;;;2.28;100;93374.2;;;;
2021/01/31 01:52:52;;;;;;;6.050001;4.25;;;;;;;2.14;100;93380.27;;;;
2021/01/31 01:53:55;;;;;;;6.050001;4.25;;;;;;;2.14;100;93380.27;;;;
2021/01/31 01:54:58;;;;;;;6.050001;4.25;;;;;;;2.14;100;93380.27;;;;
2021/01/31 01:56:02;;;;;;;6.050001;4.25;;;;;;;2.14;100;93380.27;;;;
2021/01/31 01:57:11;;;;;;;6.050001;4.25;;;;;;;2.14;100;93380.27;;;;
2021/01/31 01:58:17;;;;;;;6.050001;4.25;;;;;;;2.14;100;93380.27;;;;
2021/01/31 01:59:19;;;;;;;6.050001;4.25;;;;;;;2.14;100;93380.27;;;;
2021/01/31 02:00:21;;;;;;;6.050001;4.25;;;;;;;2.14;100;93380.27;;;;
2021/01/31 02:01:22;;;;;;;6.050001;4.25;;;;;;;2.14;100;93380.27;;;;
2021/01/31 02:02:24;;;;;;;6.050001;4.25;;;;;;;2.14;100;93380.27;;;;
2021/01/31 02:03:30;;;;;;;6.7;4.450001;;;;;;;1.99;100;93389.76;;;;
2021/01/31 02:04:35;;;;;;;6.7;4.450001;;;;;;;1.99;100;93389.76;;;;
2021/01/31 02:05:36;;;;;;;6.7;4.450001;;;;;;;1.99;100;93389.76;;;;
2021/01/31 02:06:37;;;;;;;6.7;4.450001;;;;;;;1.99;100;93389.76;;;;
2021/01/31 02:07:38;;;;;;;6.7;4.450001;;;;;;;1.99;100;93389.76;;;;
2021/01/31 02:08:38;;;;;;;6.7;4.450001;;;;;;;1.99;100;93389.76;;;;
2021/01/31 02:09:40;;;;;;;6.7;4.450001;;;;;;;1.99;100;93389.76;;;;
2021/01/31 02:10:43;;;;;;;6.7;4.450001;;;;;;;1.99;100;93389.76;;;;
2021/01/31 02:11:44;;;;;;;6.7;4.450001;;;;;;;1.99;100;93389.76;;;;
2021/01/31 02:12:44;;;;;;;6.7;4.450001;;;;;;;1.99;100;93389.76;;;;
2021/01/31 02:13:45;;;;;;;8.199999;5.65;;;;;;;1.86;100;93398.86;;;;
2021/01/31 02:14:51;;;;;;;8.199999;5.65;;;;;;;1.86;100;93398.86;;;;
2021/01/31 02:15:55;;;;;;;8.199999;5.65;;;;;;;1.86;100;93398.86;;;;
2021/01/31 02:16:59;;;;;;;8.199999;5.65;;;;;;;1.86;100;93398.86;;;;
2021/01/31 02:18:06;;;;;;;8.199999;5.65;;;;;;;1.86;100;93398.86;;;;
2021/01/31 02:19:15;;;;;;;8.199999;5.65;;;;;;;1.86;100;93398.86;;;;
2021/01/31 02:20:41;;;;;;;8.199999;5.65;;;;;;;1.86;100;93398.86;;;;
2021/01/31 02:22:05;;;;;;;8.199999;5.65;;;;;;;1.86;100;93398.86;;;;
2021/01/31 02:27:17;;;;;;;11.4;7.05;;;;;;;1.74;100;93400.2;;;;
2021/01/31 02:29:03;;;;;;;11.4;7.05;;;;;;;1.74;100;93400.2;;;;
2021/01/31 02:30:25;;;;;;;11.4;7.05;;;;;;;1.74;100;93400.2;;;;
2021/01/31 02:31:50;;;;;;;11.4;7.05;;;;;;;1.74;100;93400.2;;;;
2021/01/31 02:33:03;;;;;;;11.4;7.05;;;;;;;1.74;100;93400.2;;;;
2021/01/31 02:34:49;;;;;;;11.4;8;;;;;;;1.62;100;93417.17;;;;
2021/01/31 02:35:57;;;;;;;11.4;8;;;;;;;1.62;100;93417.17;;;;
2021/01/31 02:37:06;;;;;;;11.4;8;;;;;;;1.62;100;93417.17;;;;
2021/01/31 02:38:16;;;;;;;11.4;8;;;;;;;1.62;100;93417.17;;;;
2021/01/31 02:39:26;;;;;;;11.4;8;;;;;;;1.62;100;93417.17;;;;
2021/01/31 02:40:38;;;;;;;11.4;8;;;;;;;1.62;100;93417.17;;;;
2021/01/31 02:41:50;;;;;;;11.4;8;;;;;;;1.62;100;93417.17;;;;
2021/01/31 02:43:09;;;;;;;11.4;8;;;;;;;1.62;100;93417.17;;;;
2021/01/31 02:44:13;;;;;;;11.4;8;;;;;;;1.62;100;93417.17;;;;
2021/01/31 02:45:18;;;;;;;11.4;8;;;;;;;1.62;100;93417.17;;;;
2021/01/31 02:46:24;;;;;;;13.45;9.349999;;;;;;;1.48;100;93409.88;;;;
2021/01/31 02:47:29;;;;;;;13.45;9.349999;;;;;;;1.48;100;93409.88;;;;
2021/01/31 02:48:33;;;;;;;13.45;9.349999;;;;;;;1.48;100;93409.88;;;;
2021/01/31 02:49:38;;;;;;;13.45;9.349999;;;;;;;1.48;100;93409.88;;;;
2021/01/31 02:50:44;;;;;;;13.45;9.349999;;;;;;;1.48;100;93409.88;;;;
2021/01/31 02:51:49;;;;;;;13.45;9.349999;;;;;;;1.48;100;93409.88;;;;
2021/01/31 02:52:56;;;;;;;13.45;9.349999;;;;;;;1.48;100;93409.88;;;;
2021/01/31 02:54:02;;;;;;;13.45;9.349999;;;;;;;1.48;100;93409.88;;;;
2021/01/31 02:55:08;;;;;;;13.45;9.349999;;;;;;;1.48;100;93409.88;;;;
2021/01/31 02:56:13;;;;;;;14.9;9.85;;;;;;;1.39;100;93409.5;;;;
2021/01/31 02:57:19;;;;;;;14.9;9.85;;;;;;;1.39;100;93409.5;;;;
2021/01/31 02:58:28;;;;;;;14.9;9.85;;;;;;;1.39;100;93409.5;;;;
2021/01/31 02:59:34;;;;;;;14.9;9.85;;;;;;;1.39;100;93409.5;;;;
2021/01/31 03:00:41;;;;;;;14.9;9.85;;;;;;;1.39;100;93409.5;;;;
2021/01/31 03:01:50;;;;;;;14.9;9.85;;;;;;;1.39;100;93409.5;;;;
2021/01/31 03:02:57;;;;;;;14.9;9.85;;;;;;;1.39;100;93409.5;;;;
2021/01/31 03:04:03;;;;;;;14.9;9.85;;;;;;;1.39;100;93409.5;;;;
2021/01/31 03:05:09;;;;;;;14.9;9.85;;;;;;;1.39;100;93409.5;;;;
2021/01/31 03:06:16;;;;;;;14.9;9.85;;;;;;;1.39;100;93409.5;;;;
2021/01/31 03:07:26;;;;;;;15.15;9.950001;;;;;;;1.34;100;93411.52;;;;
2021/01/31 03:08:31;;;;;;;15.15;9.950001;;;;;;;1.34;100;93411.52;;;;
2021/01/31 03:09:35;;;;;;;15.15;9.950001;;;;;;;1.34;100;93411.52;;;;
2021/01/31 03:10:44;;;;;;;15.15;9.950001;;;;;;;1.34;100;93411.52;;;;
2021/01/31 03:11:49;;;;;;;15.15;9.950001;;;;;;;1.34;100;93411.52;;;;
2021/01/31 03:12:55;;;;;;;15.15;9.950001;;;;;;;1.34;100;93411.52;;;;
2021/01/31 03:14:00;;;;;;;15.15;9.950001;;;;;;;1.34;100;93411.52;;;;
2021/01/31 03:15:06;;;;;;;15.15;9.950001;;;;;;;1.34;100;93411.52;;;;
2021/01/31 03:16:13;;;;;;;15.15;9.950001;;;;;;;1.34;100;93411.52;;;;
2021/01/31 03:17:17;;;;;;;15.15;9.950001;;;;;;;1.34;100;93411.52;;;;
2021/01/31 03:18:24;;;;;;;17.4;10.95;;;;;;;1.3;100;93425.89;;;;
2021/01/31 03:19:32;;;;;;;17.4;10.95;;;;;;;1.3;100;93425.89;;;;
2021/01/31 03:20:38;;;;;;;17.4;10.95;;;;;;;1.3;100;93425.89;;;;
2021/01/31 03:21:44;;;;;;;17.4;10.95;;;;;;;1.3;100;93425.89;;;;
2021/01/31 03:22:47;;;;;;;17.4;10.95;;;;;;;1.3;100;93425.89;;;;
2021/01/31 03:23:53;;;;;;;17.4;10.95;;;;;;;1.3;100;93425.89;;;;
2021/01/31 03:25:02;;;;;;;17.4;10.95;;;;;;;1.3;100;93425.89;;;;
2021/01/31 03:26:09;;;;;;;17.4;10.95;;;;;;;1.3;100;93425.89;;;;
2021/01/31 03:27:17;;;;;;;17.4;10.95;;;;;;;1.3;100;93425.89;;;;
2021/01/31 03:28:22;;;;;;;17.3;11.3;;;;;;;1.26;100;93429.51;;;;
2021/01/31 03:29:23;;;;;;;17.3;11.3;;;;;;;1.26;100;93429.51;;;;
2021/01/31 03:30:24;;;;;;;17.3;11.3;;;;;;;1.26;100;93429.51;;;;
2021/01/31 03:31:24;;;;;;;17.3;11.3;;;;;;;1.26;100;93429.51;;;;
2021/01/31 03:32:28;;;;;;;17.3;11.3;;;;;;;1.26;100;93429.51;;;;
2021/01/31 03:33:33;;;;;;;17.3;11.3;;;;;;;1.26;100;93429.51;;;;
2021/01/31 03:34:39;;;;;;;17.3;11.3;;;;;;;1.26;100;93429.51;;;;
2021/01/31 03:35:46;;;;;;;17.3;11.3;;;;;;;1.26;100;93429.51;;;;
2021/01/31 03:36:49;;;;;;;17.3;11.3;;;;;;;1.26;100;93429.51;;;;
2021/01/31 03:37:56;;;;;;;17.3;11.3;;;;;;;1.26;100;93429.51;;;;
2021/01/31 03:39:13;;;;;;;21.25;12.8;;;;;;;1.25;100;93439.96;;;;
2021/01/31 03:40:15;;;;;;;21.25;12.8;;;;;;;1.25;100;93439.96;;;;
2021/01/31 03:41:17;;;;;;;21.25;12.8;;;;;;;1.25;100;93439.96;;;;
2021/01/31 03:42:21;;;;;;;21.25;12.8;;;;;;;1.25;100;93439.96;;;;
2021/01/31 03:43:21;;;;;;;21.25;12.8;;;;;;;1.25;100;93439.96;;;;
2021/01/31 03:44:22;;;;;;;21.25;12.8;;;;;;;1.25;100;93439.96;;;;
2021/01/31 03:45:23;;;;;;;21.25;12.8;;;;;;;1.25;100;93439.96;;;;
2021/01/31 03:46:30;;;;;;;21.25;12.8;;;;;;;1.25;100;93439.96;;;;
2021/01/31 03:47:35;;;;;;;21.25;12.8;;;;;;;1.25;100;93439.96;;;;
2021/01/31 03:48:43;;;;;;;21.25;12.8;;;;;;;1.25;100;93439.96;;;;
2021/01/31 03:49:50;;;;;;;18;11.8;;;;;;;1.31;100;93451.45;;;;
2021/01/31 03:50:55;;;;;;;18;11.8;;;;;;;1.31;100;93451.45;;;;
2021/01/31 03:51:55;;;;;;;18;11.8;;;;;;;1.31;100;93451.45;;;;
2021/01/31 03:52:56;;;;;;;18;11.8;;;;;;;1.31;100;93451.45;;;;
2021/01/31 03:53:57;;;;;;;18;11.8;;;;;;;1.31;100;93451.45;;;;
2021/01/31 03:54:58;;;;;;;18;11.8;;;;;;;1.31;100;93451.45;;;;
2021/01/31 03:55:59;;;;;;;18;11.8;;;;;;;1.31;100;93451.45;;;;
2021/01/31 03:57:01;;;;;;;18;11.8;;;;;;;1.31;100;93451.45;;;;
2021/01/31 03:58:07;;;;;;;18;11.8;;;;;;;1.31;100;93451.45;;;;
2021/01/31 03:59:12;;;;;;;18;11.8;;;;;;;1.31;100;93451.45;;;;
2021/01/31 04:00:19;;;;;;;17.65;12;;;;;;;1.31;100;93466.99;;;;
2021/01/31 04:01:24;;;;;;;17.65;12;;;;;;;1.31;100;93466.99;;;;
2021/01/31 04:02:27;;;;;;;17.65;12;;;;;;;1.31;100;93466.99;;;;
2021/01/31 04:03:34;;;;;;;17.65;12;;;;;;;1.31;100;93466.99;;;;
2021/01/31 04:04:39;;;;;;;17.65;12;;;;;;;1.31;100;93466.99;;;;
2021/01/31 04:05:45;;;;;;;17.65;12;;;;;;;1.31;100;93466.99;;;;
2021/01/31 04:06:53;;;;;;;17.65;12;;;;;;;1.31;100;93466.99;;;;
2021/01/31 04:07:58;;;;;;;17.65;12;;;;;;;1.31;100;93466.99;;;;
2021/01/31 04:09:05;;;;;;;17.65;12;;;;;;;1.31;100;93466.99;;;;
2021/01/31 04:10:07;;;;;;;17.65;12;;;;;;;1.31;100;93466.99;;;;
2021/01/31 04:11:08;;;;;;;17.1;10.8;;;;;;;1.28;100;93478.45;;;;
2021/01/31 04:12:09;;;;;;;17.1;10.8;;;;;;;1.28;100;93478.45;;;;
2021/01/31 04:13:13;;;;;;;17.1;10.8;;;;;;;1.28;100;93478.45;;;;
2021/01/31 04:14:14;;;;;;;17.1;10.8;;;;;;;1.28;100;93478.45;;;;
2021/01/31 04:15:24;;;;;;;17.1;10.8;;;;;;;1.28;100;93478.45;;;;
2021/01/31 04:16:36;;;;;;;17.1;10.8;;;;;;;1.28;100;93478.45;;;;
2021/01/31 04:17:49;;;;;;;17.1;10.8;;;;;;;1.28;100;93478.45;;;;
2021/01/31 04:18:50;;;;;;;17.1;10.8;;;;;;;1.28;100;93478.45;;;;
2021/01/31 04:19:50;;;;;;;17.1;10.8;;;;;;;1.28;100;93478.45;;;;
2021/01/31 04:20:51;;;;;;;17.1;10.8;;;;;;;1.28;100;93478.45;;;;
2021/01/31 04:21:52;;;;;;;16.35;10.3;;;;;;;1.23;100;93484.45;;;;
2021/01/31 04:22:53;;;;;;;16.35;10.3;;;;;;;1.23;100;93484.45;;;;
2021/01/31 04:23:54;;;;;;;16.35;10.3;;;;;;;1.23;100;93484.45;;;;
2021/01/31 04:24:54;;;;;;;16.35;10.3;;;;;;;1.23;100;93484.45;;;;
2021/01/31 04:25:55;;;;;;;16.35;10.3;;;;;;;1.23;100;93484.45;;;;
2021/01/31 04:26:55;;;;;;;16.35;10.3;;;;;;;1.23;100;93484.45;;;;
2021/01/31 04:27:55;;;;;;;16.35;10.3;;;;;;;1.23;100;93484.45;;;;
2021/01/31 04:28:57;;;;;;;16.35;10.3;;;;;;;1.23;100;93484.45;;;;
2021/01/31 04:29:57;;;;;;;16.35;10.3;;;;;;;1.23;100;93484.45;;;;
2021/01/31 04:30:58;;;;;;;16.35;10.3;;;;;;;1.23;100;93484.45;;;;
2021/01/31 04:31:59;;;;;;;16.35;10.3;;;;;;;1.23;100;93484.45;;;;
2021/01/31 04:32:59;;;;;;;14.5;10.25;;;;;;;1.16;100;93486.49;;;;
2021/01/31 04:34:00;;;;;;;14.5;10.25;;;;;;;1.16;100;93486.49;;;;
2021/01/31 04:35:01;;;;;;;14.5;10.25;;;;;;;1.16;100;93486.49;;;;
2021/01/31 04:36:02;;;;;;;14.5;10.25;;;;;;;1.16;100;93486.49;;;;
2021/01/31 04:37:03;;;;;;;14.5;10.25;;;;;;;1.16;100;93486.49;;;;
2021/01/31 04:38:04;;;;;;;14.5;10.25;;;;;;;1.16;100;93486.49;;;;
2021/01/31 04:39:06;;;;;;;14.5;10.25;;;;;;;1.16;100;93486.49;;;;
2021/01/31 04:40:06;;;;;;;14.5;10.25;;;;;;;1.16;100;93486.49;;;;
2021/01/31 04:41:11;;;;;;;14.5;10.25;;;;;;;1.16;100;93486.49;;;;
2021/01/31 04:42:12;;;;;;;14.5;10.25;;;;;;;1.16;100;93486.49;;;;
2021/01/31 04:43:15;;;;;;;15.95;10.5;;;;;;;1.1;100;93492.58;;;;
2021/01/31 04:44:18;;;;;;;15.95;10.5;;;;;;;1.1;100;93492.58;;;;
2021/01/31 04:45:21;;;;;;;15.95;10.5;;;;;;;1.1;100;93492.58;;;;
2021/01/31 04:46:21;;;;;;;15.95;10.5;;;;;;;1.1;100;93492.58;;;;
2021/01/31 04:47:34;;;;;;;15.95;10.5;;;;;;;1.1;100;93492.58;;;;
2021/01/31 04:48:39;;;;;;;15.95;10.5;;;;;;;1.1;100;93492.58;;;;
2021/01/31 04:49:45;;;;;;;15.95;10.5;;;;;;;1.1;100;93492.58;;;;
2021/01/31 04:51:01;;;;;;;15.95;10.5;;;;;;;1.1;100;93492.58;;;;
2021/01/31 04:52:12;;;;;;;15.95;10.5;;;;;;;1.1;100;93492.58;;;;
2021/01/31 04:53:27;;;;;;;16.45;10.85;;;;;;;1.02;100;93509.25;;;;
2021/01/31 04:54:42;;;;;;;16.45;10.85;;;;;;;1.02;100;93509.25;;;;
2021/01/31 04:55:59;;;;;;;16.45;10.85;;;;;;;1.02;100;93509.25;;;;
2021/01/31 04:57:09;;;;;;;16.45;10.85;;;;;;;1.02;100;93509.25;;;;
2021/01/31 04:58:13;;;;;;;16.45;10.85;;;;;;;1.02;100;93509.25;;;;
2021/01/31 04:59:16;;;;;;;16.45;10.85;;;;;;;1.02;100;93509.25;;;;
2021/01/31 05:00:27;;;;;;;16.45;10.85;;;;;;;1.02;100;93509.25;;;;
2021/01/31 05:01:30;;;;;;;16.45;10.85;;;;;;;1.02;100;93509.25;;;;
2021/01/31 05:02:32;;;;;;;16.45;10.85;;;;;;;1.02;100;93509.25;;;;
2021/01/31 05:03:36;;;;;;;16.45;10.85;;;;;;;1.02;100;93509.25;;;;
2021/01/31 05:04:45;;;;;;;14.15;9.8;;;;;;;0.97;100;93517.58;;;;
2021/01/31 05:05:50;;;;;;;14.15;9.8;;;;;;;0.97;100;93517.58;;;;
2021/01/31 05:06:55;;;;;;;14.15;9.8;;;;;;;0.97;100;93517.58;;;;
2021/01/31 05:08:03;;;;;;;14.15;9.8;;;;;;;0.97;100;93517.58;;;;
2021/01/31 05:09:06;;;;;;;14.15;9.8;;;;;;;0.97;100;93517.58;;;;
2021/01/31 05:10:15;;;;;;;14.15;9.8;;;;;;;0.97;100;93517.58;;;;
2021/01/31 05:11:16;;;;;;;14.15;9.8;;;;;;;0.97;100;93517.58;;;;
2021/01/31 05:12:23;;;;;;;14.15;9.8;;;;;;;0.97;100;93517.58;;;;
2021/01/31 05:13:34;;;;;;;14.15;9.8;;;;;;;0.97;100;93517.58;;;;
2021/01/31 05:14:41;;;;;;;14.15;9.8;;;;;;;0.97;100;93517.58;;;;
2021/01/31 05:15:54;;;;;;;14.5;10.15;;;;;;;0.84;100;93521.7;;;;
2021/01/31 05:17:02;;;;;;;14.5;10.15;;;;;;;0.84;100;93521.7;;;;
2021/01/31 05:18:03;;;;;;;14.5;10.15;;;;;;;0.84;100;93521.7;;;;
2021/01/31 05:19:05;;;;;;;14.5;10.15;;;;;;;0.84;100;93521.7;;;;
2021/01/31 05:20:11;;;;;;;14.5;10.15;;;;;;;0.84;100;93521.7;;;;
2021/01/31 05:21:15;;;;;;;14.5;10.15;;;;;;;0.84;100;93521.7;;;;
2021/01/31 05:22:19;;;;;;;14.5;10.15;;;;;;;0.84;100;93521.7;;;;
2021/01/31 05:23:24;;;;;;;14.5;10.15;;;;;;;0.84;100;93521.7;;;;
2021/01/31 05:24:25;;;;;;;14.5;10.15;;;;;;;0.84;100;93521.7;;;;
2021/01/31 05:25:26;;;;;;;15.25;10.6;;;;;;;0.8;100;93533.28;;;;
2021/01/31 05:26:30;;;;;;;15.25;10.6;;;;;;;0.8;100;93533.28;;;;
2021/01/31 05:27:35;;;;;;;15.25;10.6;;;;;;;0.8;100;93533.28;;;;
2021/01/31 05:28:36;;;;;;;15.25;10.6;;;;;;;0.8;100;93533.28;;;;
2021/01/31 05:29:41;;;;;;;15.25;10.6;;;;;;;0.8;100;93533.28;;;;
2021/01/31 05:30:41;;;;;;;15.25;10.6;;;;;;;0.8;100;93533.28;;;;
2021/01/31 05:31:45;;;;;;;15.25;10.6;;;;;;;0.8;100;93533.28;;;;
2021/01/31 05:33:02;;;;;;;15.25;10.6;;;;;;;0.8;100;93533.28;;;;
2021/01/31 05:34:07;;;;;;;15.25;10.6;;;;;;;0.8;100;93533.28;;;;
2021/01/31 05:35:07;;;;;;;15.25;10.6;;;;;;;0.8;100;93533.28;;;;
2021/01/31 05:36:21;;;;;;;15.85;10.2;;;;;;;0.69;100;93559.74;;;;
2021/01/31 05:37:23;;;;;;;15.85;10.2;;;;;;;0.69;100;93559.74;;;;
2021/01/31 05:38:27;;;;;;;15.85;10.2;;;;;;;0.69;100;93559.74;;;;
2021/01/31 05:39:37;;;;;;;15.85;10.2;;;;;;;0.69;100;93559.74;;;;
2021/01/31 05:40:41;;;;;;;15.85;10.2;;;;;;;0.69;100;93559.74;;;;
2021/01/31 05:41:44;;;;;;;15.85;10.2;;;;;;;0.69;100;93559.74;;;;
2021/01/31 05:42:47;;;;;;;15.85;10.2;;;;;;;0.69;100;93559.74;;;;
2021/01/31 05:43:47;;;;;;;15.85;10.2;;;;;;;0.69;100;93559.74;;;;
2021/01/31 05:44:55;;;;;;;15.85;10.2;;;;;;;0.69;100;93559.74;;;;
2021/01/31 05:45:59;;;;;;;15.85;10.2;;;;;;;0.69;100;93559.74;;;;
2021/01/31 05:47:15;;;;;;;18.2;10.95;;;;;;;0.61;100;93552.47;;;;
2021/01/31 05:48:20;;;;;;;18.2;10.95;;;;;;;0.61;100;93552.47;;;;
2021/01/31 05:49:35;;;;;;;18.2;10.95;;;;;;;0.61;100;93552.47;;;;
2021/01/31 05:50:40;;;;;;;18.2;10.95;;;;;;;0.61;100;93552.47;;;;
2021/01/31 05:51:42;;;;;;;18.2;10.95;;;;;;;0.61;100;93552.47;;;;
2021/01/31 05:52:45;;;;;;;18.2;10.95;;;;;;;0.61;100;93552.47;;;;
2021/01/31 05:53:45;;;;;;;18.2;10.95;;;;;;;0.61;100;93552.47;;;;
2021/01/31 05:54:46;;;;;;;18.2;10.95;;;;;;;0.61;100;93552.47;;;;
2021/01/31 05:55:48;;;;;;;18.2;10.95;;;;;;;0.61;100;93552.47;;;;
2021/01/31 05:56:49;;;;;;;18.2;10.95;;;;;;;0.61;100;93552.47;;;;
2021/01/31 05:57:49;;;;;;;20.9;11.8;;;;;;;0.59;100;93574.85;;;;
2021/01/31 05:58:50;;;;;;;20.9;11.8;;;;;;;0.59;100;93574.85;;;;
2021/01/31 05:59:53;;;;;;;20.9;11.8;;;;;;;0.59;100;93574.85;;;;
2021/01/31 06:00:55;;;;;;;20.9;11.8;;;;;;;0.59;100;93574.85;;;;
2021/01/31 06:02:05;;;;;;;20.9;11.8;;;;;;;0.59;100;93574.85;;;;
2021/01/31 06:03:07;;;;;;;20.9;11.8;;;;;;;0.59;100;93574.85;;;;
2021/01/31 06:04:09;;;;;;;20.9;11.8;;;;;;;0.59;100;93574.85;;;;
2021/01/31 06:05:11;;;;;;;20.9;11.8;;;;;;;0.59;100;93574.85;;;;
2021/01/31 06:06:16;;;;;;;20.9;11.8;;;;;;;0.59;100;93574.85;;;;
2021/01/31 06:07:24;;;;;;;20.9;11.8;;;;;;;0.59;100;93574.85;;;;
2021/01/31 06:08:24;;;;;;;15.45;9.8;;;;;;;0.56;100;93591.71;;;;
2021/01/31 06:09:28;;;;;;;15.45;9.8;;;;;;;0.56;100;93591.71;;;;
2021/01/31 06:10:35;;;;;;;15.45;9.8;;;;;;;0.56;100;93591.71;;;;
2021/01/31 06:11:39;;;;;;;15.45;9.8;;;;;;;0.56;100;93591.71;;;;
2021/01/31 06:12:42;;;;;;;15.45;9.8;;;;;;;0.56;100;93591.71;;;;
2021/01/31 06:13:44;;;;;;;15.45;9.8;;;;;;;0.56;100;93591.71;;;;
2021/01/31 06:14:47;;;;;;;15.45;9.8;;;;;;;0.56;100;93591.71;;;;
2021/01/31 06:15:58;;;;;;;15.45;9.8;;;;;;;0.56;100;93591.71;;;;
2021/01/31 06:17:02;;;;;;;15.45;9.8;;;;;;;0.56;100;93591.71;;;;
2021/01/31 06:18:05;;;;;;;15.45;9.8;;;;;;;0.56;100;93591.71;;;;
2021/01/31 06:19:19;;;;;;;18.7;11.7;;;;;;;0.48;100;93598.12;;;;
2021/01/31 06:20:26;;;;;;;18.7;11.7;;;;;;;0.48;100;93598.12;;;;
2021/01/31 06:21:30;;;;;;;18.7;11.7;;;;;;;0.48;100;93598.12;;;;
2021/01/31 06:22:38;;;;;;;18.7;11.7;;;;;;;0.48;100;93598.12;;;;
2021/01/31 06:23:41;;;;;;;18.7;11.7;;;;;;;0.48;100;93598.12;;;;
2021/01/31 06:24:43;;;;;;;18.7;11.7;;;;;;;0.48;100;93598.12;;;;
2021/01/31 06:25:47;;;;;;;18.7;11.7;;;;;;;0.48;100;93598.12;;;;
2021/01/31 06:26:48;;;;;;;18.7;11.7;;;;;;;0.48;100;93598.12;;;;
2021/01/31 06:27:49;;;;;;;18.7;11.7;;;;;;;0.48;100;93598.12;;;;
2021/01/31 06:28:50;;;;;;;18.7;11.7;;;;;;;0.48;100;93598.12;;;;
2021/01/31 06:29:54;;;;;;;18.25;11.6;;;;;;;0.41;100;93600.39;;;;
2021/01/31 06:31:10;;;;;;;18.25;11.6;;;;;;;0.41;100;93600.39;;;;
2021/01/31 06:32:19;;;;;;;18.25;11.6;;;;;;;0.41;100;93600.39;;;;
2021/01/31 06:33:23;;;;;;;18.25;11.6;;;;;;;0.41;100;93600.39;;;;
2021/01/31 06:34:24;;;;;;;18.25;11.6;;;;;;;0.41;100;93600.39;;;;